X  Schließen METAR Luftfahrt Wetterdaten     EDDK Cologne Bonn Airport
Temperatur
10°C Temperatur
9°C Taupunkt
94% Feuchtigkeit



Wind
19 KM/S
12 MPS
5 M/S
10 KTS



140°
SO
Aktuelle Wetterlage

Teilweise bewölkt Teilweise bewölkt
Luftdruck 1014.92 (hPa) - 29.97 (inHg)
Sichtweite 6.2 (Meile) - 10 (Km)
Flughafen
Flughafen Code EDDK

Position : Cologne Bonn Airport
Entfernung: 56 (Km)

Metar:
EDDK 211120Z AUTO 14010KT 110V170 9999 FEW007 10/09 Q1015 NOSIG

Zeit: 2023-03-21 12:20 CET